Time;durP1;ratioP1;P1;durP2;ratioP2;P2;SDS_P1;SDS_P2;PMS_P1;PMS_P2;Temp;Humidity;BMP_temperature;BMP_pressure;BME280_temperature;BME280_humidity;BME280_pressure;Samples;Min_cycle;Max_cycle;Signal;HPM_P1;HPM_P2
2022/04/17 00:00:29;;;;;;;2.45;1.48;;;24.30;39.10;;;;;;4996233;28;20471;-66
2022/04/17 00:02:55;;;;;;;2.40;1.25;;;24.30;39.10;;;;;;4991285;28;20136;-65
2022/04/17 00:05:21;;;;;;;2.30;1.20;;;24.30;39.20;;;;;;5026858;28;20029;-66
2022/04/17 00:07:47;;;;;;;2.58;1.20;;;24.30;39.10;;;;;;4993873;28;20057;-63
2022/04/17 00:10:13;;;;;;;2.28;1.42;;;24.30;39.10;;;;;;4994862;28;20025;-66
2022/04/17 00:12:40;;;;;;;2.03;1.20;;;24.20;39.20;;;;;;4989139;28;20092;-65
2022/04/17 00:15:10;;;;;;;1.73;1.10;;;24.20;39.20;;;;;;4993210;28;20439;-65
2022/04/17 00:17:42;;;;;;;2.50;1.63;;;24.20;39.10;;;;;;4990287;28;20026;-66
2022/04/17 00:20:12;;;;;;;2.00;1.20;;;24.20;39.10;;;;;;4993363;28;20033;-67
2022/04/17 00:22:38;;;;;;;2.28;1.30;;;24.10;39.10;;;;;;4990563;28;20037;-67
2022/04/17 00:25:04;;;;;;;2.03;1.30;;;24.10;39.10;;;;;;4992786;28;20605;-66
2022/04/17 00:27:30;;;;;;;2.33;1.27;;;24.10;39.10;;;;;;4992940;28;20116;-64
2022/04/17 00:29:55;;;;;;;2.25;1.30;;;24.10;39.10;;;;;;4995630;28;20486;-66
2022/04/17 00:32:21;;;;;;;2.17;1.40;;;24.10;39.20;;;;;;4991403;28;20042;-66
2022/04/17 00:34:46;;;;;;;2.83;1.30;;;24.10;39.20;;;;;;4992200;28;20332;-63
2022/04/17 00:37:12;;;;;;;2.13;1.30;;;24.00;39.10;;;;;;4993730;28;20029;-66
2022/04/17 00:39:39;;;;;;;2.10;1.40;;;24.00;39.20;;;;;;4995085;28;20034;-66
2022/04/17 00:42:07;;;;;;;3.22;1.10;;;24.00;39.20;;;;;;4991794;28;20022;-66
2022/04/17 00:44:32;;;;;;;1.75;1.10;;;24.00;39.20;;;;;;4994518;28;20494;-62
2022/04/17 00:46:58;;;;;;;2.10;1.13;;;23.90;39.20;;;;;;4992034;28;20034;-65
2022/04/17 00:49:26;;;;;;;2.33;1.30;;;23.90;39.20;;;;;;4992231;28;20038;-66
2022/04/17 00:51:52;;;;;;;1.77;1.10;;;23.90;39.20;;;;;;4992866;28;20413;-66
2022/04/17 00:54:19;;;;;;;1.88;1.20;;;23.90;39.20;;;;;;4994098;28;20026;-67
2022/04/17 00:56:48;;;;;;;2.20;1.38;;;23.90;39.20;;;;;;4992158;28;20044;-67
2022/04/17 00:59:17;;;;;;;2.05;1.17;;;23.90;39.80;;;;;;4995133;28;20026;-66
2022/04/17 01:01:42;;;;;;;1.95;1.20;;;23.90;39.20;;;;;;4989801;28;20038;-66
2022/04/17 01:04:09;;;;;;;2.80;1.10;;;23.80;39.20;;;;;;4992093;28;20090;-67
2022/04/17 01:06:37;;;;;;;2.08;1.15;;;23.80;39.30;;;;;;4991139;28;20036;-65
2022/04/17 01:09:03;;;;;;;2.07;1.27;;;23.80;39.30;;;;;;4995456;28;20031;-66
2022/04/17 01:11:29;;;;;;;2.15;1.38;;;23.80;39.30;;;;;;4988338;28;20296;-67
2022/04/17 01:13:55;;;;;;;2.13;1.30;;;23.70;39.30;;;;;;4985276;28;20108;-63
2022/04/17 01:16:27;;;;;;;1.85;1.17;;;23.70;39.30;;;;;;4990102;28;20044;-65
2022/04/17 01:18:57;;;;;;;1.75;1.10;;;23.70;39.30;;;;;;4992382;28;20132;-66
2022/04/17 01:21:26;;;;;;;1.83;1.10;;;23.70;39.30;;;;;;4991744;28;20048;-66
2022/04/17 01:26:58;;;;;;;1.55;1.00;;;23.70;39.30;;;;;;4990672;28;20048;-66
2022/04/17 01:29:25;;;;;;;1.83;1.20;;;23.70;39.30;;;;;;4993953;28;20045;-66
2022/04/17 01:31:51;;;;;;;2.00;1.20;;;23.70;39.40;;;;;;4990611;28;20976;-66
2022/04/17 01:34:18;;;;;;;2.03;1.10;;;23.60;39.40;;;;;;5025081;28;20532;-66
2022/04/17 01:36:44;;;;;;;1.65;1.10;;;23.60;39.30;;;;;;4990389;28;20159;-66
2022/04/17 01:39:11;;;;;;;2.00;1.10;;;23.60;39.40;;;;;;4994732;28;20459;-63
2022/04/17 01:41:37;;;;;;;2.25;1.20;;;23.50;39.30;;;;;;4992983;28;20021;-63
2022/04/17 01:44:03;;;;;;;1.90;1.10;;;23.50;39.30;;;;;;4993184;28;20558;-64
2022/04/17 01:46:29;;;;;;;1.73;1.10;;;23.60;39.40;;;;;;4992069;28;20180;-63
2022/04/17 01:48:54;;;;;;;2.03;1.20;;;23.50;39.40;;;;;;4993327;28;20120;-66
2022/04/17 01:51:21;;;;;;;1.95;1.20;;;23.50;39.40;;;;;;4989648;28;20105;-65
2022/04/17 01:53:47;;;;;;;1.65;0.95;;;23.50;39.40;;;;;;4995447;28;20038;-65
2022/04/17 01:56:16;;;;;;;2.33;1.10;;;23.50;39.40;;;;;;4991219;28;20036;-66
2022/04/17 01:58:42;;;;;;;1.40;1.02;;;23.50;39.40;;;;;;4993312;28;20025;-65
2022/04/17 02:01:07;;;;;;;1.80;1.00;;;23.40;39.40;;;;;;4991446;28;20037;-66
2022/04/17 02:03:33;;;;;;;1.48;1.10;;;23.40;39.40;;;;;;4988497;28;20084;-66
2022/04/17 02:06:02;;;;;;;1.85;1.10;;;23.40;39.50;;;;;;4993510;28;20476;-66
2022/04/17 02:08:31;;;;;;;1.67;1.00;;;23.40;39.50;;;;;;4993444;28;20032;-62
2022/04/17 02:10:59;;;;;;;1.42;0.93;;;23.40;39.50;;;;;;4992993;28;20287;-66
2022/04/17 02:13:25;;;;;;;2.00;1.00;;;23.30;39.40;;;;;;4993486;28;20055;-65
2022/04/17 02:15:53;;;;;;;2.17;0.90;;;23.30;39.50;;;;;;4992024;28;20038;-66
2022/04/17 02:18:20;;;;;;;2.10;1.10;;;23.30;39.60;;;;;;4988349;28;20021;-66
2022/04/17 02:20:47;;;;;;;1.15;0.90;;;23.30;39.50;;;;;;4996837;28;20113;-62
2022/04/17 02:23:13;;;;;;;1.27;0.90;;;23.20;39.50;;;;;;4995684;28;20022;-66
2022/04/17 02:25:40;;;;;;;1.55;1.00;;;23.20;39.50;;;;;;4997464;28;20033;-64
2022/04/17 02:28:05;;;;;;;1.70;0.98;;;23.20;39.50;;;;;;4997100;28;20108;-66
2022/04/17 02:30:31;;;;;;;1.40;0.82;;;23.20;39.50;;;;;;4995873;28;20740;-65
2022/04/17 02:32:57;;;;;;;1.58;0.88;;;23.20;39.50;;;;;;4994048;28;20030;-65
2022/04/17 02:35:22;;;;;;;1.80;0.90;;;23.10;39.50;;;;;;4993936;28;20497;-66
2022/04/17 02:37:48;;;;;;;1.40;0.80;;;23.10;39.50;;;;;;4995612;28;20459;-65
2022/04/17 02:40:14;;;;;;;1.63;1.05;;;23.10;39.50;;;;;;4996401;28;20040;-61
2022/04/17 02:42:39;;;;;;;1.95;1.00;;;23.10;39.60;;;;;;4997267;28;20060;-66
2022/04/17 02:45:05;;;;;;;1.63;1.00;;;23.10;39.60;;;;;;4995199;28;20117;-65
2022/04/17 02:47:42;;;;;;;1.50;1.10;;;23.10;39.60;;;;;;4993891;28;20040;-65
2022/04/17 02:50:09;;;;;;;1.38;0.90;;;23.00;39.60;;;;;;4995744;28;20124;-65
2022/04/17 02:52:35;;;;;;;1.23;0.88;;;23.00;39.60;;;;;;4996218;28;20387;-65
2022/04/17 02:55:01;;;;;;;1.38;1.00;;;23.00;39.60;;;;;;4995204;28;20033;-61
2022/04/17 02:57:28;;;;;;;1.17;0.90;;;23.00;39.70;;;;;;4995524;28;20052;-66
2022/04/17 02:59:53;;;;;;;1.40;0.90;;;23.00;39.70;;;;;;4996171;28;20018;-65
2022/04/17 03:07:48;;;;;;;1.30;0.80;;;22.90;39.60;;;;;;4995603;28;20072;-65
2022/04/17 03:10:13;;;;;;;1.27;0.90;;;22.90;39.60;;;;;;4996385;28;20054;-63
2022/04/17 03:12:39;;;;;;;1.33;0.85;;;22.90;39.60;;;;;;4996945;28;20037;-61
2022/04/17 03:15:06;;;;;;;1.10;0.90;;;22.90;39.60;;;;;;4995052;28;20100;-65
2022/04/17 03:17:32;;;;;;;1.50;0.98;;;22.90;39.60;;;;;;4995441;28;20055;-64
2022/04/17 03:19:58;;;;;;;1.38;0.80;;;22.90;39.70;;;;;;4994883;28;20132;-61
2022/04/17 03:22:24;;;;;;;1.55;1.00;;;22.90;39.70;;;;;;4995697;28;20022;-65
2022/04/17 03:24:50;;;;;;;1.40;1.00;;;22.80;39.60;;;;;;4993991;28;20360;-66
2022/04/17 03:27:16;;;;;;;0.95;0.70;;;22.80;39.60;;;;;;4992755;28;20030;-65
2022/04/17 03:29:41;;;;;;;1.38;1.00;;;22.80;39.70;;;;;;5007374;28;20057;-66
2022/04/17 03:32:07;;;;;;;1.10;0.80;;;22.80;39.60;;;;;;4989989;28;20138;-65
2022/04/17 03:34:33;;;;;;;1.60;1.00;;;22.80;39.60;;;;;;4993832;28;20636;-64
2022/04/17 03:36:58;;;;;;;1.63;1.00;;;22.80;39.70;;;;;;4994628;28;20443;-65
2022/04/17 03:39:25;;;;;;;1.63;0.90;;;22.80;39.80;;;;;;4995078;28;20434;-64
2022/04/17 03:41:51;;;;;;;1.25;0.90;;;22.80;39.60;;;;;;4998351;28;20029;-65
2022/04/17 03:44:17;;;;;;;1.50;1.00;;;22.80;39.70;;;;;;4993790;28;20088;-66
2022/04/17 03:46:43;;;;;;;1.13;0.93;;;22.80;39.60;;;;;;4996050;28;20026;-66
2022/04/17 03:49:09;;;;;;;1.17;0.90;;;22.80;39.70;;;;;;4991371;28;20030;-65
2022/04/17 03:51:35;;;;;;;1.27;0.90;;;22.80;39.60;;;;;;4993682;28;20045;-62
2022/04/17 03:54:01;;;;;;;1.55;1.00;;;22.80;39.60;;;;;;4994969;28;20045;-65
2022/04/17 03:56:27;;;;;;;1.90;0.90;;;22.80;39.60;;;;;;4996803;28;20073;-65
2022/04/17 03:58:53;;;;;;;1.05;0.82;;;22.80;39.60;;;;;;4995489;28;20045;-65
2022/04/17 04:01:18;;;;;;;1.58;1.00;;;22.70;39.60;;;;;;4992504;28;20036;-65
2022/04/17 04:03:44;;;;;;;1.27;0.82;;;22.70;39.60;;;;;;4991457;28;20030;-63
2022/04/17 04:06:10;;;;;;;1.25;0.90;;;22.70;39.70;;;;;;5026534;28;20037;-65
2022/04/17 04:08:36;;;;;;;2.00;1.00;;;22.60;39.70;;;;;;4993896;28;20041;-65
2022/04/17 04:11:01;;;;;;;1.55;0.93;;;22.60;39.60;;;;;;4994232;28;20044;-63
2022/04/17 04:13:27;;;;;;;1.15;0.80;;;22.60;39.70;;;;;;4993872;28;20025;-65
2022/04/17 04:15:55;;;;;;;1.73;0.80;;;22.60;39.70;;;;;;4993870;28;20065;-63
2022/04/17 04:18:21;;;;;;;0.93;0.80;;;22.60;39.70;;;;;;4993582;28;20022;-65
2022/04/17 04:20:47;;;;;;;1.42;1.00;;;22.60;39.70;;;;;;4995051;28;20034;-64
2022/04/17 04:23:12;;;;;;;1.40;0.85;;;22.60;39.70;;;;;;4989431;28;20030;-65
2022/04/17 04:25:38;;;;;;;1.13;0.80;;;22.60;39.70;;;;;;4995662;28;20133;-65
2022/04/17 04:30:48;;;;;;;1.85;0.80;;;22.60;39.70;;;;;;4992391;28;20116;-61
2022/04/17 04:33:14;;;;;;;1.52;0.90;;;22.60;39.80;;;;;;4992717;28;20994;-65
2022/04/17 04:35:40;;;;;;;1.85;0.95;;;22.60;39.80;;;;;;4991292;28;20140;-65
2022/04/17 04:38:06;;;;;;;1.30;1.00;;;22.60;39.80;;;;;;4994897;28;21572;-64
2022/04/17 04:40:32;;;;;;;0.93;0.80;;;22.50;39.70;;;;;;4992840;28;20025;-65
2022/04/17 04:43:02;;;;;;;1.15;0.90;;;22.50;39.70;;;;;;4992237;28;20026;-64
2022/04/17 04:48:13;;;;;;;1.13;0.80;;;22.50;39.80;;;;;;4993053;28;20052;-61
2022/04/17 04:50:39;;;;;;;0.95;0.80;;;22.50;39.80;;;;;;4994020;28;20120;-66
2022/04/17 04:53:05;;;;;;;1.20;0.90;;;22.50;39.80;;;;;;4992506;28;20037;-63
2022/04/17 04:55:30;;;;;;;1.05;0.80;;;22.50;39.80;;;;;;4991978;28;20068;-64
2022/04/17 04:57:56;;;;;;;1.58;1.02;;;22.50;39.80;;;;;;4995621;28;20018;-61
2022/04/17 05:00:22;;;;;;;1.25;0.80;;;22.50;39.80;;;;;;4989243;28;20044;-62
2022/04/17 05:02:47;;;;;;;1.13;0.80;;;22.50;39.80;;;;;;4993032;28;20525;-65
2022/04/17 05:05:13;;;;;;;0.95;0.73;;;22.50;39.90;;;;;;5021363;28;20029;-66
2022/04/17 05:07:39;;;;;;;1.75;1.00;;;22.50;39.80;;;;;;4994053;28;20072;-66
2022/04/17 05:10:07;;;;;;;1.10;0.85;;;22.50;39.80;;;;;;4992829;28;20029;-65
2022/04/17 05:12:33;;;;;;;2.03;1.00;;;22.50;39.80;;;;;;4994910;28;20049;-63
2022/04/17 05:15:00;;;;;;;2.33;0.90;;;22.40;39.70;;;;;;4990891;28;20080;-65
2022/04/17 05:17:25;;;;;;;0.80;0.80;;;22.40;39.80;;;;;;4987753;28;20197;-65
2022/04/17 05:19:51;;;;;;;1.42;0.80;;;22.40;39.80;;;;;;4987346;28;20454;-62
2022/04/17 05:22:17;;;;;;;0.85;0.70;;;22.40;39.80;;;;;;4990826;28;20479;-60
2022/04/17 05:24:44;;;;;;;1.20;0.90;;;22.40;39.80;;;;;;4992056;28;21181;-62
2022/04/17 05:27:12;;;;;;;1.35;0.80;;;22.40;39.80;;;;;;4989631;28;20068;-65
2022/04/17 05:29:37;;;;;;;1.52;1.00;;;22.40;39.80;;;;;;4990316;28;20044;-64
2022/04/17 05:32:03;;;;;;;1.30;0.80;;;22.40;39.80;;;;;;4986865;28;20037;-65
2022/04/17 05:34:29;;;;;;;1.02;0.80;;;22.40;39.80;;;;;;4992431;28;20033;-65
2022/04/17 05:36:55;;;;;;;1.23;0.90;;;22.40;39.80;;;;;;4989650;28;20053;-64
2022/04/17 05:39:20;;;;;;;1.20;0.90;;;22.40;39.70;;;;;;4993529;28;20037;-65
2022/04/17 05:41:47;;;;;;;1.08;0.88;;;22.40;39.70;;;;;;4990845;28;20042;-65
2022/04/17 05:44:13;;;;;;;1.00;0.80;;;22.40;39.70;;;;;;4994350;28;20382;-61
2022/04/17 05:46:41;;;;;;;0.82;0.70;;;22.40;39.80;;;;;;4988572;28;20041;-65
2022/04/17 05:49:07;;;;;;;1.33;0.80;;;22.40;39.80;;;;;;4992447;28;20038;-65
2022/04/17 05:51:34;;;;;;;0.82;0.70;;;22.40;39.80;;;;;;4991035;28;20766;-65
2022/04/17 05:54:01;;;;;;;1.05;0.80;;;22.40;39.80;;;;;;4991807;28;20038;-65
2022/04/17 05:56:27;;;;;;;1.10;0.90;;;22.40;39.80;;;;;;4998165;28;20048;-65
2022/04/17 05:58:53;;;;;;;1.00;0.85;;;22.30;39.70;;;;;;4995788;28;20022;-61
2022/04/17 06:01:18;;;;;;;1.10;0.85;;;22.40;39.80;;;;;;4991002;28;20052;-63
2022/04/17 06:03:44;;;;;;;1.10;0.70;;;22.30;39.80;;;;;;4996867;28;20045;-62
2022/04/17 06:06:10;;;;;;;1.13;0.80;;;22.30;39.70;;;;;;4992135;28;20017;-62
2022/04/17 06:08:39;;;;;;;1.20;0.80;;;22.30;39.80;;;;;;4996625;28;20041;-65
2022/04/17 06:11:05;;;;;;;1.13;0.90;;;22.30;39.80;;;;;;4996224;28;20565;-65
2022/04/17 06:13:30;;;;;;;0.98;0.80;;;22.30;39.70;;;;;;4994457;28;20124;-65
2022/04/17 06:15:56;;;;;;;0.98;0.80;;;22.30;39.70;;;;;;4990119;28;20108;-65
2022/04/17 06:18:21;;;;;;;1.08;0.75;;;22.30;39.70;;;;;;4993782;28;20104;-62
2022/04/17 06:20:47;;;;;;;1.13;1.00;;;22.30;39.70;;;;;;4996221;28;20026;-65
2022/04/17 06:23:13;;;;;;;0.95;0.80;;;22.30;39.80;;;;;;4994801;28;20033;-66
2022/04/17 06:25:38;;;;;;;0.90;0.75;;;22.30;39.80;;;;;;4993142;28;20072;-65
2022/04/17 06:28:04;;;;;;;1.05;0.80;;;22.30;39.70;;;;;;4998350;28;20034;-65
2022/04/17 06:30:30;;;;;;;0.85;0.70;;;22.30;39.80;;;;;;4994256;28;20041;-65
2022/04/17 06:32:56;;;;;;;1.40;0.80;;;22.30;39.80;;;;;;4993786;28;20783;-62
2022/04/17 06:35:21;;;;;;;0.77;0.75;;;22.30;39.80;;;;;;4994415;28;20116;-65
2022/04/17 06:37:55;;;;;;;1.00;0.80;;;22.30;39.80;;;;;;4995052;28;20125;-65
2022/04/17 06:40:25;;;;;;;1.05;0.70;;;22.30;39.80;;;;;;4995671;28;20096;-65
2022/04/17 06:42:53;;;;;;;0.80;0.70;;;22.30;39.80;;;;;;4996269;28;20376;-65
2022/04/17 06:45:19;;;;;;;1.25;0.90;;;22.30;39.80;;;;;;4993236;28;20073;-60
2022/04/17 06:47:45;;;;;;;1.40;0.80;;;22.20;39.70;;;;;;4989515;28;20041;-61
2022/04/17 06:50:12;;;;;;;0.93;0.77;;;22.30;39.80;;;;;;4989746;28;20045;-65
2022/04/17 06:52:38;;;;;;;1.30;0.80;;;22.20;39.80;;;;;;4990203;28;20518;-65
2022/04/17 06:55:05;;;;;;;1.08;0.70;;;22.20;39.80;;;;;;4995730;28;20113;-65
2022/04/17 06:57:33;;;;;;;0.90;0.80;;;22.20;39.80;;;;;;4992574;28;20431;-65
2022/04/17 07:00:06;;;;;;;1.05;0.80;;;22.20;39.80;;;;;;5003301;28;20609;-65
2022/04/17 07:02:31;;;;;;;1.10;0.80;;;22.20;40.00;;;;;;4995525;28;20075;-65
2022/04/17 07:04:57;;;;;;;1.15;0.80;;;22.20;39.80;;;;;;4988300;28;20180;-63
2022/04/17 07:07:23;;;;;;;0.93;0.80;;;22.20;39.80;;;;;;4994495;28;20498;-64
2022/04/17 07:09:49;;;;;;;1.00;0.77;;;22.20;39.80;;;;;;4997815;28;20084;-64
2022/04/17 07:12:16;;;;;;;0.90;0.70;;;22.20;39.90;;;;;;4994208;28;20478;-64
2022/04/17 07:14:42;;;;;;;0.90;0.75;;;22.20;39.80;;;;;;4994213;28;20052;-65
2022/04/17 07:17:07;;;;;;;1.27;0.90;;;22.20;39.90;;;;;;4992322;28;20030;-60
2022/04/17 07:19:33;;;;;;;0.77;0.70;;;22.20;39.90;;;;;;4996243;28;20434;-61
2022/04/17 07:21:59;;;;;;;0.73;0.70;;;22.20;39.90;;;;;;4992014;28;20067;-65
2022/04/17 07:24:26;;;;;;;0.90;0.80;;;22.10;39.80;;;;;;4992522;28;20025;-61
2022/04/17 07:26:53;;;;;;;0.80;0.70;;;22.10;39.90;;;;;;4990349;28;20032;-66
2022/04/17 07:29:22;;;;;;;0.85;0.70;;;22.10;39.90;;;;;;4990471;28;20026;-67
2022/04/17 07:31:55;;;;;;;1.10;0.75;;;22.10;39.90;;;;;;4989384;28;20457;-66
2022/04/17 07:34:21;;;;;;;0.70;0.70;;;22.10;39.90;;;;;;4995574;28;20021;-65
2022/04/17 07:36:48;;;;;;;1.30;0.85;;;22.10;39.90;;;;;;4993821;28;20042;-65
2022/04/17 07:39:17;;;;;;;0.73;0.68;;;22.10;40.00;;;;;;4993507;28;20036;-65
2022/04/17 07:41:44;;;;;;;0.60;0.60;;;22.10;40.00;;;;;;4996396;28;20398;-64
2022/04/17 07:44:13;;;;;;;0.98;0.70;;;22.20;40.10;;;;;;4995941;28;20021;-65
2022/04/17 07:46:39;;;;;;;1.33;0.77;;;22.10;40.00;;;;;;4993579;28;20033;-66
2022/04/17 07:49:05;;;;;;;0.70;0.70;;;22.10;40.10;;;;;;4995750;28;20109;-65
2022/04/17 07:51:31;;;;;;;1.30;0.80;;;22.10;40.00;;;;;;5024487;28;20259;-66
2022/04/17 07:53:56;;;;;;;1.35;0.80;;;22.10;40.00;;;;;;4994606;28;20061;-65
2022/04/17 07:56:22;;;;;;;0.93;0.65;;;22.10;40.00;;;;;;4994744;28;20030;-66
2022/04/17 07:58:48;;;;;;;1.17;0.90;;;22.10;40.10;;;;;;4995705;28;20037;-64
2022/04/17 08:01:16;;;;;;;0.70;0.70;;;22.10;40.60;;;;;;4992300;28;20176;-65
2022/04/17 08:06:12;;;;;;;0.65;0.65;;;22.10;40.70;;;;;;4992592;28;20075;-66
2022/04/17 08:08:39;;;;;;;1.00;0.75;;;22.10;40.20;;;;;;4993005;28;20079;-65
2022/04/17 08:11:05;;;;;;;1.17;0.90;;;22.10;40.10;;;;;;4993320;28;20478;-66
2022/04/17 08:13:31;;;;;;;2.38;0.70;;;22.10;40.20;;;;;;4991677;28;20121;-62
2022/04/17 08:15:57;;;;;;;0.82;0.63;;;22.10;40.20;;;;;;4994145;28;20117;-65
2022/04/17 08:18:23;;;;;;;0.90;0.80;;;22.10;40.20;;;;;;4988424;28;20148;-64
2022/04/17 08:20:48;;;;;;;1.10;0.80;;;22.00;40.10;;;;;;4993878;28;20026;-64
2022/04/17 08:23:14;;;;;;;1.17;0.75;;;22.00;40.20;;;;;;4992602;28;20022;-65
2022/04/17 08:25:40;;;;;;;1.23;0.80;;;22.00;40.20;;;;;;4993577;28;20128;-61
2022/04/17 08:28:06;;;;;;;1.20;0.80;;;22.00;40.20;;;;;;5005916;28;20113;-65
2022/04/17 08:30:33;;;;;;;0.93;0.70;;;22.10;40.30;;;;;;4990255;28;20104;-65
2022/04/17 08:33:01;;;;;;;0.90;0.70;;;22.00;40.20;;;;;;5018500;28;20038;-65
2022/04/17 08:35:27;;;;;;;2.45;0.82;;;22.00;40.20;;;;;;4991063;28;20037;-65
2022/04/17 08:37:55;;;;;;;1.00;0.65;;;22.00;40.30;;;;;;4989738;28;20359;-65
2022/04/17 08:40:20;;;;;;;2.20;0.68;;;22.00;40.30;;;;;;4992036;28;20034;-66
2022/04/17 08:42:47;;;;;;;0.88;0.70;;;22.00;40.30;;;;;;4990677;28;20767;-66
2022/04/17 08:45:13;;;;;;;1.10;0.80;;;22.00;40.30;;;;;;4987302;28;20048;-66
2022/04/17 08:47:40;;;;;;;0.70;0.70;;;22.00;40.30;;;;;;4990902;28;20404;-66
2022/04/17 08:50:11;;;;;;;1.00;0.70;;;22.00;40.30;;;;;;4991755;28;20048;-66
2022/04/17 08:52:38;;;;;;;0.95;0.80;;;22.00;40.30;;;;;;5020794;28;20033;-66
2022/04/17 08:55:05;;;;;;;1.45;0.90;;;22.00;40.40;;;;;;4991505;28;20485;-64
2022/04/17 08:57:31;;;;;;;1.92;1.15;;;22.00;40.40;;;;;;4991332;28;20030;-61
2022/04/17 08:59:58;;;;;;;0.75;0.65;;;22.00;40.40;;;;;;4991012;28;20307;-65
2022/04/17 09:02:24;;;;;;;1.10;0.80;;;22.00;40.40;;;;;;4989914;28;20127;-65
2022/04/17 09:04:49;;;;;;;0.90;0.70;;;22.00;40.40;;;;;;4989877;28;20089;-66
2022/04/17 09:07:15;;;;;;;0.73;0.70;;;22.00;40.40;;;;;;4991030;28;20034;-65
2022/04/17 09:09:48;;;;;;;1.20;0.80;;;22.00;40.40;;;;;;4989730;28;20128;-65
2022/04/17 09:12:21;;;;;;;1.00;0.80;;;22.00;40.40;;;;;;4986188;28;20030;-63
2022/04/17 09:14:48;;;;;;;1.30;0.80;;;22.00;40.40;;;;;;5006958;28;20115;-65
2022/04/17 09:17:13;;;;;;;1.60;0.90;;;22.00;40.50;;;;;;4988658;28;20040;-60
2022/04/17 09:19:39;;;;;;;1.20;0.80;;;22.00;41.00;;;;;;4991823;28;20363;-65
2022/04/17 09:22:06;;;;;;;1.00;0.75;;;22.00;40.50;;;;;;4990560;28;20112;-65
2022/04/17 09:24:38;;;;;;;1.17;0.82;;;22.00;40.50;;;;;;4990732;28;20053;-66
2022/04/17 09:27:05;;;;;;;1.35;0.80;;;22.00;40.50;;;;;;4989786;28;20113;-65
2022/04/17 09:29:33;;;;;;;1.15;0.70;;;22.00;40.50;;;;;;5006860;28;20030;-66
2022/04/17 09:32:06;;;;;;;1.17;0.73;;;22.00;40.50;;;;;;4988112;28;20088;-65
2022/04/17 09:34:45;;;;;;;1.00;0.70;;;22.00;40.50;;;;;;4991604;28;20128;-65
2022/04/17 09:37:16;;;;;;;1.00;0.70;;;22.00;40.50;;;;;;4988419;28;20022;-62
2022/04/17 09:39:42;;;;;;;0.98;0.70;;;22.00;40.50;;;;;;4990337;28;20022;-65
2022/04/17 09:42:08;;;;;;;1.92;1.00;;;22.00;40.60;;;;;;4990971;28;20083;-66
2022/04/17 09:44:46;;;;;;;0.98;0.80;;;22.00;40.50;;;;;;4992356;28;20031;-65
2022/04/17 09:47:19;;;;;;;1.55;0.90;;;21.90;40.50;;;;;;4987590;28;20100;-65
2022/04/17 09:50:08;;;;;;;1.20;0.68;;;21.90;40.50;;;;;;4989407;28;20132;-65
2022/04/17 09:52:40;;;;;;;2.38;0.80;;;21.90;40.50;;;;;;5003722;28;20085;-65
2022/04/17 09:55:06;;;;;;;0.90;0.70;;;22.00;40.50;;;;;;4990744;28;20041;-65
2022/04/17 09:57:33;;;;;;;1.55;0.70;;;21.90;40.50;;;;;;4988716;28;20018;-66
2022/04/17 10:00:14;;;;;;;1.38;0.82;;;21.90;40.50;;;;;;4992888;28;20116;-66
2022/04/17 10:02:42;;;;;;;1.13;0.70;;;21.90;40.50;;;;;;4986903;28;20056;-65
2022/04/17 10:05:10;;;;;;;1.50;0.80;;;22.00;40.60;;;;;;4991153;28;20561;-66
2022/04/17 10:07:41;;;;;;;1.90;0.90;;;22.00;40.60;;;;;;4992512;28;20117;-65
2022/04/17 10:10:07;;;;;;;3.25;0.95;;;21.90;40.60;;;;;;5005583;28;20083;-65
2022/04/17 10:12:36;;;;;;;1.98;0.90;;;22.00;40.60;;;;;;4990660;28;20041;-63
2022/04/17 10:15:07;;;;;;;2.55;1.30;;;22.00;40.70;;;;;;4989622;28;20033;-65
2022/04/17 10:17:34;;;;;;;1.95;1.05;;;22.00;40.70;;;;;;4989763;28;20459;-64
2022/04/17 10:20:11;;;;;;;2.88;1.27;;;22.00;40.70;;;;;;4991146;28;20469;-61
2022/04/17 10:22:38;;;;;;;3.47;1.30;;;22.00;40.80;;;;;;4992104;28;20030;-65
2022/04/17 10:25:08;;;;;;;3.78;1.50;;;22.00;40.80;;;;;;4993433;28;20032;-65
2022/04/17 10:27:46;;;;;;;4.03;1.90;;;22.00;40.90;;;;;;4995022;28;20034;-66
2022/04/17 10:30:15;;;;;;;6.05;1.77;;;22.00;41.00;;;;;;4990458;28;20026;-65
2022/04/17 10:32:59;;;;;;;3.67;1.80;;;21.90;41.00;;;;;;5005730;28;20038;-65
2022/04/17 10:35:45;;;;;;;3.75;1.80;;;22.00;41.60;;;;;;4988991;28;20108;-62
2022/04/17 10:38:31;;;;;;;4.88;2.00;;;21.90;41.10;;;;;;4991117;28;20188;-65
2022/04/17 10:41:09;;;;;;;4.38;1.90;;;21.90;41.20;;;;;;4993157;28;20559;-65
2022/04/17 10:43:55;;;;;;;5.50;2.30;;;21.90;41.30;;;;;;4995655;28;20030;-65
2022/04/17 10:46:21;;;;;;;4.13;2.08;;;22.00;41.50;;;;;;4992787;28;20056;-64
2022/04/17 10:49:12;;;;;;;4.40;2.20;;;21.90;41.60;;;;;;4993821;28;20030;-61
2022/04/17 10:51:41;;;;;;;4.40;2.13;;;21.90;41.60;;;;;;4988968;28;20026;-64
2022/04/17 10:54:13;;;;;;;4.80;2.08;;;21.90;41.70;;;;;;4994381;28;20053;-64
2022/04/17 10:56:40;;;;;;;5.53;2.35;;;21.90;41.80;;;;;;4992548;28;20033;-66
2022/04/17 10:59:20;;;;;;;4.60;2.13;;;21.90;42.00;;;;;;5011728;28;20113;-65
2022/04/17 11:01:46;;;;;;;6.03;2.45;;;21.90;42.00;;;;;;4984125;28;20046;-65
2022/04/17 11:04:31;;;;;;;7.07;2.60;;;21.90;42.10;;;;;;4992231;28;20040;-65
2022/04/17 11:07:06;;;;;;;5.40;2.35;;;21.90;42.00;;;;;;4993194;28;20089;-66
2022/04/17 11:09:33;;;;;;;6.60;2.20;;;21.90;42.10;;;;;;4994099;28;20454;-60
2022/04/17 11:12:27;;;;;;;5.55;2.80;;;21.90;42.10;;;;;;5009029;28;20040;-64
2022/04/17 11:15:02;;;;;;;6.53;2.40;;;22.00;42.20;;;;;;4986390;28;20042;-65
2022/04/17 11:17:29;;;;;;;5.95;2.65;;;21.90;42.20;;;;;;4991377;28;20072;-65
2022/04/17 11:19:56;;;;;;;6.07;2.20;;;21.90;42.20;;;;;;4986694;28;20022;-62
2022/04/17 11:22:35;;;;;;;5.22;2.60;;;21.90;42.20;;;;;;4993457;28;20038;-65
2022/04/17 11:25:07;;;;;;;4.50;2.20;;;21.90;42.30;;;;;;4990573;28;20033;-64
2022/04/17 11:27:41;;;;;;;7.78;2.40;;;21.90;42.50;;;;;;4990876;28;20551;-64
2022/04/17 11:30:28;;;;;;;5.70;2.17;;;21.90;42.40;;;;;;4987410;28;20410;-65
2022/04/17 11:32:55;;;;;;;5.30;2.10;;;21.90;42.50;;;;;;4988878;28;20045;-65
2022/04/17 11:35:25;;;;;;;4.72;1.95;;;21.90;42.50;;;;;;4991354;28;20121;-66
2022/04/17 11:37:52;;;;;;;4.85;2.03;;;21.90;42.50;;;;;;4994658;28;20109;-65
2022/04/17 11:40:19;;;;;;;4.40;2.13;;;21.90;42.60;;;;;;4995374;28;20260;-65
2022/04/17 11:42:53;;;;;;;5.15;2.00;;;21.90;42.50;;;;;;4993840;28;20096;-66
2022/04/17 11:45:23;;;;;;;5.47;2.10;;;21.90;42.70;;;;;;4995072;28;20022;-65
2022/04/17 11:47:49;;;;;;;4.82;1.85;;;21.90;42.70;;;;;;5009542;28;20045;-65
2022/04/17 11:50:34;;;;;;;4.78;1.90;;;22.00;42.70;;;;;;4996486;28;20080;-64
2022/04/17 11:53:02;;;;;;;3.63;1.80;;;22.00;42.60;;;;;;5006170;28;20513;-61
2022/04/17 11:55:36;;;;;;;5.63;2.05;;;21.90;42.60;;;;;;4994116;28;20104;-65
2022/04/17 11:58:02;;;;;;;4.10;1.80;;;21.90;42.50;;;;;;4994452;28;20026;-66
2022/04/17 12:00:29;;;;;;;5.07;2.05;;;21.90;42.40;;;;;;4994138;28;20501;-63
2022/04/17 12:02:57;;;;;;;4.05;1.73;;;21.90;42.40;;;;;;4993748;28;20043;-65
2022/04/17 12:05:22;;;;;;;5.00;1.80;;;21.90;42.40;;;;;;4992227;28;20458;-62
2022/04/17 12:07:56;;;;;;;4.75;2.00;;;21.90;42.30;;;;;;4984492;28;20461;-67
2022/04/17 12:10:22;;;;;;;4.10;1.63;;;21.90;42.30;;;;;;4991133;28;20022;-63
2022/04/17 12:12:48;;;;;;;4.18;1.92;;;22.00;42.40;;;;;;4993665;28;20040;-66
2022/04/17 12:15:15;;;;;;;4.00;1.80;;;21.90;42.30;;;;;;4992109;28;20030;-67
2022/04/17 12:17:41;;;;;;;4.55;1.90;;;21.90;42.30;;;;;;4991024;28;20034;-63
2022/04/17 12:20:13;;;;;;;3.72;1.67;;;21.90;42.20;;;;;;4994137;28;20032;-62
2022/04/17 12:22:40;;;;;;;3.60;1.70;;;22.00;42.30;;;;;;4992453;28;20033;-67
2022/04/17 12:25:21;;;;;;;4.43;1.75;;;22.00;42.80;;;;;;4995159;28;20032;-66
2022/04/17 12:27:47;;;;;;;3.78;1.77;;;22.00;42.30;;;;;;4990241;28;20125;-65
2022/04/17 12:30:13;;;;;;;4.05;1.90;;;22.00;42.30;;;;;;4991520;28;20128;-64
2022/04/17 12:32:46;;;;;;;3.88;1.85;;;22.00;42.30;;;;;;4984885;28;20228;-65
2022/04/17 12:35:20;;;;;;;3.72;1.60;;;22.00;42.20;;;;;;4986012;28;20036;-66
2022/04/17 12:37:45;;;;;;;4.70;1.75;;;22.00;42.20;;;;;;4990871;28;20117;-65
2022/04/17 12:40:20;;;;;;;3.05;1.50;;;22.00;42.10;;;;;;4996173;28;20105;-61
2022/04/17 12:42:47;;;;;;;3.50;1.52;;;22.00;42.10;;;;;;4993748;28;20018;-65
2022/04/17 12:45:24;;;;;;;4.50;1.70;;;22.00;42.20;;;;;;4994595;28;20033;-65
2022/04/17 12:48:06;;;;;;;3.13;1.63;;;22.00;42.10;;;;;;4992688;28;20757;-65
2022/04/17 12:50:33;;;;;;;2.75;1.40;;;22.00;42.10;;;;;;4994987;28;20057;-65
2022/04/17 12:52:59;;;;;;;4.10;1.95;;;22.00;42.10;;;;;;4991836;28;20084;-65
2022/04/17 12:55:34;;;;;;;3.45;1.42;;;22.00;42.00;;;;;;4994469;28;20049;-65
2022/04/17 12:58:01;;;;;;;3.58;1.80;;;22.00;42.00;;;;;;4994299;28;20041;-65
2022/04/17 13:00:33;;;;;;;3.17;1.50;;;22.00;42.00;;;;;;4995048;28;20287;-65
2022/04/17 13:03:10;;;;;;;4.03;1.80;;;22.00;42.00;;;;;;4993135;28;20030;-65
2022/04/17 13:05:36;;;;;;;5.72;1.70;;;22.00;41.90;;;;;;4993380;28;20034;-64
2022/04/17 13:08:06;;;;;;;3.70;1.48;;;22.00;41.90;;;;;;4993680;28;20471;-64